Time;durP1;ratioP1;P1;durP2;ratioP2;P2;SDS_P1;SDS_P2;PMS_P1;PMS_P2;Temp;Humidity;BMP_temperature;BMP_pressure;BME280_temperature;BME280_humidity;BME280_pressure;Samples;Min_cycle;Max_cycle;Signal;HPM_P1;HPM_P2
2021/11/19 00:01:44;;;;;;;;;;;;;;;9.86;100.00;102914.38;5097005;28;19966;-36
2021/11/19 00:04:09;;;;;;;;;;;;;;;9.87;100.00;102912.50;5097666;28;20007;-36
2021/11/19 00:06:35;;;;;;;;;;;;;;;9.86;100.00;102905.41;5097543;28;19955;-34
2021/11/19 00:09:02;;;;;;;;;;;;;;;9.82;100.00;102894.13;5096931;28;19916;-34
2021/11/19 00:11:29;;;;;;;;;;;;;;;9.83;100.00;102909.31;5096511;28;19938;-34
2021/11/19 00:13:54;;;;;;;;;;;;;;;9.83;100.00;102906.59;5097025;28;20307;-34
2021/11/19 00:16:23;;;;;;;;;;;;;;;9.83;100.00;102906.59;5096557;28;19943;-34
2021/11/19 00:18:49;;;;;;;;;;;;;;;9.82;100.00;102907.63;5096718;28;19912;-33
2021/11/19 00:21:14;;;;;;;;;;;;;;;9.82;100.00;102898.69;5096389;28;19965;-34
2021/11/19 00:23:40;;;;;;;;;;;;;;;9.81;100.00;102897.84;5096947;28;19912;-34
2021/11/19 00:26:05;;;;;;;;;;;;;;;9.81;100.00;102892.44;5096556;28;19912;-34
2021/11/19 00:28:31;;;;;;;;;;;;;;;9.80;100.00;102890.72;5096827;28;19965;-34
2021/11/19 00:30:56;;;;;;;;;;;;;;;9.80;100.00;102907.78;5096516;28;19912;-34
2021/11/19 00:33:21;;;;;;;;;;;;;;;9.81;100.00;102897.84;5097212;28;20259;-33
2021/11/19 00:35:47;;;;;;;;;;;;;;;9.83;100.00;102900.38;5096664;28;19916;-34
2021/11/19 00:38:14;;;;;;;;;;;;;;;9.81;100.00;102900.53;5096744;28;19911;-34
2021/11/19 00:40:41;;;;;;;;;;;;;;;9.83;100.00;102903.06;5096081;28;19912;-34
2021/11/19 00:43:07;;;;;;;;;;;;;;;9.81;100.00;102897.84;5096918;28;19965;-34
2021/11/19 00:45:33;;;;;;;;;;;;;;;9.80;100.00;102894.28;5096237;28;20322;-39
2021/11/19 00:47:58;;;;;;;;;;;;;;;9.80;100.00;102888.03;5096237;28;19928;-34
2021/11/19 00:50:26;;;;;;;;;;;;;;;9.80;100.00;102888.03;5096254;28;20339;-36
2021/11/19 00:52:52;;;;;;;;;;;;;;;9.82;100.00;102882.47;5096068;28;19916;-36
2021/11/19 00:55:17;;;;;;;;;;;;;;;9.82;100.00;102882.47;5096859;28;19984;-36
2021/11/19 00:57:42;;;;;;;;;;;;;;;9.83;100.00;102884.16;5095981;28;20375;-36
2021/11/19 01:00:09;;;;;;;;;;;;;;;9.82;100.00;102888.72;5096410;28;19912;-36
2021/11/19 01:02:35;;;;;;;;;;;;;;;9.82;100.00;102886.00;5095471;28;19912;-36
2021/11/19 01:05:00;;;;;;;;;;;;;;;9.84;100.00;102902.03;5096424;28;19966;-36
2021/11/19 01:07:25;;;;;;;;;;;;;;;9.83;100.00;102894.97;5096601;28;19912;-36
2021/11/19 01:09:52;;;;;;;;;;;;;;;9.85;100.00;102898.31;5096347;28;19912;-36
2021/11/19 01:12:19;;;;;;;;;;;;;;;9.85;100.00;102896.44;5095701;28;20019;-36
2021/11/19 01:14:47;;;;;;;;;;;;;;;9.86;100.00;102898.16;5095944;28;20343;-36
2021/11/19 01:17:20;;;;;;;;;;;;;;;9.87;100.00;102899.84;5095706;28;19919;-36
2021/11/19 01:19:46;;;;;;;;;;;;;;;9.87;100.00;102894.44;5095237;28;19926;-34
2021/11/19 01:22:14;;;;;;;;;;;;;;;9.87;100.00;102899.84;5095926;28;19999;-34
2021/11/19 01:24:39;;;;;;;;;;;;;;;9.88;100.00;102897.97;5094915;28;20322;-34
2021/11/19 01:27:06;;;;;;;;;;;;;;;9.87;100.00;102910.66;5095058;28;19934;-34
2021/11/19 01:29:31;;;;;;;;;;;;;;;9.88;100.00;102916.88;5095619;28;20272;-34
2021/11/19 01:31:58;;;;;;;;;;;;;;;9.88;100.00;102912.31;5094952;28;19916;-34
2021/11/19 01:34:24;;;;;;;;;;;;;;;9.89;100.00;102910.47;5095280;28;19922;-34
2021/11/19 01:36:49;;;;;;;;;;;;;;;9.89;100.00;102919.41;5095653;28;19912;-34
2021/11/19 01:39:16;;;;;;;;;;;;;;;9.89;100.00;102916.69;5095133;28;19916;-34
2021/11/19 01:41:49;;;;;;;;;;;;;;;9.90;100.00;102912.97;5095303;28;19912;-35
2021/11/19 01:44:23;;;;;;;;;;;;;;;9.91;100.00;102903.03;5095413;28;19912;-36
2021/11/19 01:46:51;;;;;;;;;;;;;;;9.91;100.00;102911.97;5095314;28;20015;-36
2021/11/19 01:49:17;;;;;;;;;;;;;;;9.92;100.00;102900.16;5095116;28;19916;-36
2021/11/19 01:51:43;;;;;;;;;;;;;;;9.92;100.00;102910.13;5095023;28;19965;-36
2021/11/19 01:54:08;;;;;;;;;;;;;;;9.92;100.00;102897.44;5095237;28;19918;-36
2021/11/19 01:56:36;;;;;;;;;;;;;;;9.91;100.00;102898.47;5094671;28;19994;-36
2021/11/19 01:59:04;;;;;;;;;;;;;;;9.93;100.00;102903.69;5095157;28;20014;-34
2021/11/19 02:01:32;;;;;;;;;;;;;;;9.93;100.00;102901.00;5094387;28;20022;-34
2021/11/19 02:04:00;;;;;;;;;;;;;;;9.94;100.00;102905.38;5094706;28;19922;-34
2021/11/19 02:06:32;;;;;;;;;;;;;;;9.95;100.00;102904.34;5093398;28;19919;-33
2021/11/19 02:08:58;;;;;;;;;;;;;;;9.96;100.00;102900.66;5095405;28;20010;-34
2021/11/19 02:11:29;;;;;;;;;;;;;;;9.95;100.00;102897.06;5094950;28;20381;-35
2021/11/19 02:14:09;;;;;;;;;;;;;;;9.95;100.00;102880.84;5093741;28;19961;-36
2021/11/19 02:16:36;;;;;;;;;;;;;;;9.95;100.00;102886.25;5094915;28;19994;-36
2021/11/19 02:19:07;;;;;;;;;;;;;;;9.96;100.00;102889.84;5094748;28;19954;-36
2021/11/19 02:21:41;;;;;;;;;;;;;;;9.96;100.00;102887.97;5094656;28;19923;-36
2021/11/19 02:24:21;;;;;;;;;;;;;;;9.97;100.00;102886.94;5094636;28;19927;-36
2021/11/19 02:26:48;;;;;;;;;;;;;;;9.98;100.00;102877.81;5094337;28;19919;-36
2021/11/19 02:29:14;;;;;;;;;;;;;;;9.98;100.00;102888.63;5094396;28;19935;-36
2021/11/19 02:31:50;;;;;;;;;;;;;;;9.99;100.00;102873.25;5094477;28;19911;-36
2021/11/19 02:34:16;;;;;;;;;;;;;;;9.99;100.00;102884.91;5094808;28;19912;-36
2021/11/19 02:36:47;;;;;;;;;;;;;;;10.00;100.00;102892.00;5094168;28;19933;-36
2021/11/19 02:39:44;;;;;;;;;;;;;;;10.01;100.00;102876.63;5094202;28;19912;-36
2021/11/19 02:42:21;;;;;;;;;;;;;;;10.02;100.00;102878.31;5071925;28;19912;-36
2021/11/19 02:44:47;;;;;;;;;;;;;;;10.01;100.00;102876.63;5071374;28;19913;-36
2021/11/19 02:47:15;;;;;;;;;;;;;;;10.01;100.00;102882.88;5071384;28;20332;-36
2021/11/19 02:49:41;;;;;;;;;;;;;;;10.02;100.00;102879.16;5071599;28;19935;-36
2021/11/19 02:52:08;;;;;;;;;;;;;;;10.02;100.00;102873.75;5071459;28;20308;-36
2021/11/19 02:54:34;;;;;;;;;;;;;;;10.02;100.00;102881.84;5071790;28;19912;-33
2021/11/19 02:57:02;;;;;;;;;;;;;;;10.03;100.00;102872.72;5071106;28;20031;-34
2021/11/19 02:59:28;;;;;;;;;;;;;;;10.03;100.00;102877.28;5071342;28;19959;-33
2021/11/19 03:01:58;;;;;;;;;;;;;;;10.04;100.00;102876.25;5071048;28;20001;-35
2021/11/19 03:04:28;;;;;;;;;;;;;;;10.04;100.00;102877.09;5071803;28;20272;-36
2021/11/19 03:06:55;;;;;;;;;;;;;;;10.04;100.00;102870.84;5071188;28;19912;-36
2021/11/19 03:09:23;;;;;;;;;;;;;;;10.05;100.00;102873.41;5071806;28;19912;-36
2021/11/19 03:11:48;;;;;;;;;;;;;;;10.04;100.00;102877.09;5071747;28;19912;-36
2021/11/19 03:14:14;;;;;;;;;;;;;;;10.05;100.00;102877.94;5071237;28;19916;-36
2021/11/19 03:16:40;;;;;;;;;;;;;;;10.04;100.00;102871.69;5072985;28;19938;-36
2021/11/19 03:19:06;;;;;;;;;;;;;;;10.05;100.00;102870.69;5093654;28;19919;-36
2021/11/19 03:21:32;;;;;;;;;;;;;;;10.05;100.00;102868.00;5093410;28;19923;-34
2021/11/19 03:23:57;;;;;;;;;;;;;;;10.06;100.00;102868.81;5095033;28;19916;-33
2021/11/19 03:26:23;;;;;;;;;;;;;;;10.06;100.00;102868.81;5100149;28;20377;-34
2021/11/19 03:28:48;;;;;;;;;;;;;;;10.06;100.00;102871.53;5100775;28;19934;-36
2021/11/19 03:31:14;;;;;;;;;;;;;;;10.04;100.00;102871.69;5100132;28;19955;-36
2021/11/19 03:33:41;;;;;;;;;;;;;;;10.06;100.00;102874.22;5100676;28;20366;-36
2021/11/19 03:36:08;;;;;;;;;;;;;;;10.06;100.00;102868.81;5099912;28;19915;-36
2021/11/19 03:38:35;;;;;;;;;;;;;;;10.07;100.00;102875.91;5100696;28;19974;-36
2021/11/19 03:41:00;;;;;;;;;;;;;;;10.08;100.00;102872.19;5100093;28;19912;-36
2021/11/19 03:43:31;;;;;;;;;;;;;;;10.07;100.00;102867.81;5099891;28;20276;-36
2021/11/19 03:45:59;;;;;;;;;;;;;;;10.10;100.00;102863.88;5100386;28;19919;-36
2021/11/19 03:48:25;;;;;;;;;;;;;;;10.10;100.00;102874.69;5100560;28;20251;-36
2021/11/19 03:50:53;;;;;;;;;;;;;;;10.10;100.00;102870.13;5099814;28;19958;-36
2021/11/19 03:53:18;;;;;;;;;;;;;;;10.10;100.00;102875.53;5099810;28;19962;-36
2021/11/19 03:55:46;;;;;;;;;;;;;;;10.11;100.00;102877.25;5100059;28;19916;-36
2021/11/19 03:58:12;;;;;;;;;;;;;;;10.12;100.00;102865.41;5100283;28;19966;-36
2021/11/19 04:00:40;;;;;;;;;;;;;;;10.13;100.00;102868.94;5099858;28;19969;-36
2021/11/19 04:03:06;;;;;;;;;;;;;;;10.11;100.00;102869.13;5100502;28;19912;-36
2021/11/19 04:05:32;;;;;;;;;;;;;;;10.12;100.00;102865.41;5099611;28;19911;-36
2021/11/19 04:07:57;;;;;;;;;;;;;;;10.13;100.00;102868.94;5100115;28;19985;-36
2021/11/19 04:10:22;;;;;;;;;;;;;;;10.13;100.00;102869.78;5100214;28;20050;-36
2021/11/19 04:12:47;;;;;;;;;;;;;;;10.15;100.00;102877.69;5099783;28;19912;-36
2021/11/19 04:15:16;;;;;;;;;;;;;;;10.14;100.00;102871.47;5099850;28;19915;-36
2021/11/19 04:17:41;;;;;;;;;;;;;;;10.15;100.00;102872.28;5099753;28;19919;-36
2021/11/19 04:20:07;;;;;;;;;;;;;;;10.15;100.00;102870.47;5100288;28;19916;-36
2021/11/19 04:22:33;;;;;;;;;;;;;;;10.16;100.00;102872.13;5099365;28;20007;-36
2021/11/19 04:25:00;;;;;;;;;;;;;;;10.17;100.00;102871.09;5100493;28;20011;-36
2021/11/19 04:27:26;;;;;;;;;;;;;;;10.19;100.00;102879.03;5099926;28;19912;-36
2021/11/19 04:29:51;;;;;;;;;;;;;;;10.19;100.00;102879.03;5099762;28;20021;-36
2021/11/19 04:32:21;;;;;;;;;;;;;;;10.18;100.00;102875.50;5099660;28;20356;-36
2021/11/19 04:34:47;;;;;;;;;;;;;;;10.19;100.00;102873.63;5100084;28;19965;-36
2021/11/19 04:37:12;;;;;;;;;;;;;;;10.20;100.00;102880.72;5095608;28;19916;-36
2021/11/19 04:39:37;;;;;;;;;;;;;;;10.20;100.00;102878.00;5096595;28;19912;-36
2021/11/19 04:42:03;;;;;;;;;;;;;;;10.18;100.00;102874.66;5096144;28;19916;-36
2021/11/19 04:44:28;;;;;;;;;;;;;;;10.19;100.00;102870.91;5096297;28;19973;-36
2021/11/19 04:46:53;;;;;;;;;;;;;;;10.20;100.00;102880.72;5096567;28;19922;-36
2021/11/19 04:49:19;;;;;;;;;;;;;;;10.18;100.00;102875.50;5096325;28;19935;-36
2021/11/19 04:51:46;;;;;;;;;;;;;;;10.18;100.00;102874.66;5096208;28;19911;-36
2021/11/19 04:54:12;;;;;;;;;;;;;;;10.18;100.00;102872.78;5096975;28;19912;-36
2021/11/19 04:56:38;;;;;;;;;;;;;;;10.18;100.00;102867.38;5096168;28;19922;-36
2021/11/19 04:59:04;;;;;;;;;;;;;;;10.18;100.00;102872.78;5095709;28;20011;-36
2021/11/19 05:01:35;;;;;;;;;;;;;;;10.19;100.00;102877.16;5095881;28;19918;-36
2021/11/19 05:04:01;;;;;;;;;;;;;;;10.19;100.00;102874.47;5096000;28;19981;-36
2021/11/19 05:06:26;;;;;;;;;;;;;;;10.18;100.00;102877.34;5095892;28;19912;-36
2021/11/19 05:08:51;;;;;;;;;;;;;;;10.18;100.00;102885.47;5096127;28;19916;-36
2021/11/19 05:11:19;;;;;;;;;;;;;;;10.18;100.00;102883.59;5095746;28;19916;-34
2021/11/19 05:13:45;;;;;;;;;;;;;;;10.19;100.00;102884.44;5095799;28;19919;-34
2021/11/19 05:16:12;;;;;;;;;;;;;;;10.18;100.00;102886.31;5096273;28;20270;-36
2021/11/19 05:18:38;;;;;;;;;;;;;;;10.19;100.00;102882.56;5095676;28;19912;-36
2021/11/19 05:21:04;;;;;;;;;;;;;;;10.20;100.00;102894.22;5095227;28;19912;-36
2021/11/19 05:23:30;;;;;;;;;;;;;;;10.20;100.00;102886.13;5095960;28;19935;-36
2021/11/19 05:25:55;;;;;;;;;;;;;;;10.20;100.00;102878.88;5095578;28;19912;-36
2021/11/19 05:28:22;;;;;;;;;;;;;;;10.20;100.00;102887.00;5095884;28;19920;-36
2021/11/19 05:30:47;;;;;;;;;;;;;;;10.20;100.00;102887.00;5096229;28;20263;-36
2021/11/19 05:33:14;;;;;;;;;;;;;;;10.20;100.00;102881.56;5095542;28;19923;-36
2021/11/19 05:35:39;;;;;;;;;;;;;;;10.20;100.00;102884.28;5095352;28;19912;-36
2021/11/19 05:38:05;;;;;;;;;;;;;;;10.21;100.00;102882.41;5095864;28;19918;-36
2021/11/19 05:40:30;;;;;;;;;;;;;;;10.20;100.00;102887.00;5095757;28;20006;-36
2021/11/19 05:42:56;;;;;;;;;;;;;;;10.20;100.00;102884.28;5095843;28;20104;-36
2021/11/19 05:45:23;;;;;;;;;;;;;;;10.20;100.00;102891.53;5095680;28;19912;-36
2021/11/19 05:47:49;;;;;;;;;;;;;;;10.18;100.00;102888.16;5094638;28;20012;-36
2021/11/19 05:50:16;;;;;;;;;;;;;;;10.18;100.00;102874.66;5094788;28;19912;-36
2021/11/19 05:52:41;;;;;;;;;;;;;;;10.17;100.00;102876.53;5095094;28;19941;-36
2021/11/19 05:55:08;;;;;;;;;;;;;;;10.18;100.00;102870.09;5095580;28;20479;-36
2021/11/19 05:57:33;;;;;;;;;;;;;;;10.19;100.00;102879.03;5094922;28;19912;-36
2021/11/19 05:59:59;;;;;;;;;;;;;;;10.18;100.00;102878.19;5094828;28;20378;-36
2021/11/19 06:02:24;;;;;;;;;;;;;;;10.17;100.00;102881.94;5094867;28;19912;-36
2021/11/19 06:04:49;;;;;;;;;;;;;;;10.18;100.00;102872.78;5095130;28;20360;-36
2021/11/19 06:07:16;;;;;;;;;;;;;;;10.18;100.00;102877.34;5094488;28;20329;-36
2021/11/19 06:09:41;;;;;;;;;;;;;;;10.20;100.00;102886.13;5095001;28;19919;-36
2021/11/19 06:12:09;;;;;;;;;;;;;;;10.20;100.00;102886.13;5094629;28;20356;-36
2021/11/19 06:14:54;;;;;;;;;;;;;;;10.20;100.00;102881.56;5095236;28;19916;-36
2021/11/19 06:17:24;;;;;;;;;;;;;;;10.21;100.00;102887.81;5094190;28;19916;-36
2021/11/19 06:19:51;;;;;;;;;;;;;;;10.20;100.00;102892.41;5094338;28;19919;-35
2021/11/19 06:22:23;;;;;;;;;;;;;;;10.21;100.00;102890.53;5094152;28;19912;-35
2021/11/19 06:24:49;;;;;;;;;;;;;;;10.20;100.00;102892.41;5094451;28;19912;-35
2021/11/19 06:27:21;;;;;;;;;;;;;;;10.21;100.00;102893.22;5094831;28;19912;-35
2021/11/19 06:29:47;;;;;;;;;;;;;;;10.20;100.00;102900.50;5094298;28;19961;-36
2021/11/19 06:32:12;;;;;;;;;;;;;;;10.21;100.00;102904.06;5094270;28;19912;-36
2021/11/19 06:34:38;;;;;;;;;;;;;;;10.20;100.00;102903.22;5094863;28;19991;-36
2021/11/19 06:37:03;;;;;;;;;;;;;;;10.21;100.00;102904.06;5094244;28;19972;-36
2021/11/19 06:39:30;;;;;;;;;;;;;;;10.21;100.00;102906.75;5094727;28;19990;-35
2021/11/19 06:41:55;;;;;;;;;;;;;;;10.21;100.00;102907.59;5093891;28;19966;-35
2021/11/19 06:44:21;;;;;;;;;;;;;;;10.22;100.00;102903.03;5094087;28;19966;-35
2021/11/19 06:46:46;;;;;;;;;;;;;;;10.21;100.00;102895.94;5093930;28;19915;-35
2021/11/19 06:49:12;;;;;;;;;;;;;;;10.20;100.00;102897.81;5093869;28;19919;-35
2021/11/19 06:51:37;;;;;;;;;;;;;;;10.19;100.00;102898.78;5094133;28;19955;-35
2021/11/19 06:54:03;;;;;;;;;;;;;;;10.18;100.00;102904.41;5093685;28;19963;-35
2021/11/19 06:56:28;;;;;;;;;;;;;;;10.18;100.00;102910.63;5093675;28;19912;-35
2021/11/19 06:58:53;;;;;;;;;;;;;;;10.18;100.00;102912.50;5093026;28;19934;-35
2021/11/19 07:01:19;;;;;;;;;;;;;;;10.20;100.00;102923.97;5094230;28;19912;-35
2021/11/19 07:03:45;;;;;;;;;;;;;;;10.19;100.00;102915.03;5094117;28;19919;-35
2021/11/19 07:06:11;;;;;;;;;;;;;;;10.20;100.00;102915.84;5093770;28;19918;-35
2021/11/19 07:08:37;;;;;;;;;;;;;;;10.21;100.00;102917.56;5094013;28;19916;-35
2021/11/19 07:11:07;;;;;;;;;;;;;;;10.20;100.00;102923.97;5093653;28;19912;-35
2021/11/19 07:13:32;;;;;;;;;;;;;;;10.21;100.00;102931.09;5093430;28;19948;-35
2021/11/19 07:15:57;;;;;;;;;;;;;;;10.21;100.00;102925.69;5093641;28;19997;-35
2021/11/19 07:18:23;;;;;;;;;;;;;;;10.21;100.00;102936.50;5093741;28;19912;-35
2021/11/19 07:20:49;;;;;;;;;;;;;;;10.22;100.00;102938.16;5093447;28;20309;-35
2021/11/19 07:23:15;;;;;;;;;;;;;;;10.21;100.00;102942.75;5093309;28;19912;-35
2021/11/19 07:25:40;;;;;;;;;;;;;;;10.23;100.00;102951.50;5093479;28;19911;-35
2021/11/19 07:28:06;;;;;;;;;;;;;;;10.23;100.00;102948.81;5093509;28;20235;-35
2021/11/19 07:30:52;;;;;;;;;;;;;;;10.24;100.00;102947.81;5093427;28;19912;-35
2021/11/19 07:33:19;;;;;;;;;;;;;;;10.26;100.00;102947.66;5093742;28;19919;-35
2021/11/19 07:35:45;;;;;;;;;;;;;;;10.26;100.00;102943.09;5093279;28;19916;-35
2021/11/19 07:38:10;;;;;;;;;;;;;;;10.27;100.00;102950.16;5093443;28;19965;-35
2021/11/19 07:40:39;;;;;;;;;;;;;;;10.29;100.00;102955.38;5093302;28;19933;-35
2021/11/19 07:43:05;;;;;;;;;;;;;;;10.31;100.00;102956.91;5093891;28;19912;-35
2021/11/19 07:45:35;;;;;;;;;;;;;;;10.34;100.00;102965.66;5093155;28;19934;-35
2021/11/19 07:48:03;;;;;;;;;;;;;;;10.33;100.00;102967.53;5093302;28;19970;-35
2021/11/19 07:50:28;;;;;;;;;;;;;;;10.35;100.00;102959.28;5093571;28;19919;-35
2021/11/19 07:52:53;;;;;;;;;;;;;;;10.36;100.00;102960.94;5093357;28;20264;-35
2021/11/19 07:55:19;;;;;;;;;;;;;;;10.37;100.00;102966.16;5093864;28;19912;-35
2021/11/19 07:57:44;;;;;;;;;;;;;;;10.39;100.00;102964.13;5093218;28;19926;-35
2021/11/19 08:00:12;;;;;;;;;;;;;;;10.40;100.00;102968.53;5093237;28;19912;-35
2021/11/19 08:02:37;;;;;;;;;;;;;;;10.42;100.00;102965.63;5093092;28;19935;-35
2021/11/19 08:05:05;;;;;;;;;;;;;;;10.44;100.00;102975.28;5093169;28;19911;-35
2021/11/19 08:07:30;;;;;;;;;;;;;;;10.45;100.00;102966.13;5093274;28;20303;-35
2021/11/19 08:09:56;;;;;;;;;;;;;;;10.47;100.00;102974.91;5093340;28;19912;-35
2021/11/19 08:12:22;;;;;;;;;;;;;;;10.51;100.00;102970.81;5095935;28;19911;-35
2021/11/19 08:14:47;;;;;;;;;;;;;;;10.53;100.00;102966.06;5096528;28;20257;-35
2021/11/19 08:17:32;;;;;;;;;;;;;;;10.54;100.00;102967.78;5097216;28;20007;-35
2021/11/19 08:19:58;;;;;;;;;;;;;;;10.57;100.00;102977.38;5096813;28;19915;-35
2021/11/19 08:22:23;;;;;;;;;;;;;;;10.56;100.00;102973.81;5097080;28;19926;-35
2021/11/19 08:24:49;;;;;;;;;;;;;;;10.59;100.00;102975.34;5096836;28;19912;-35
2021/11/19 08:27:25;;;;;;;;;;;;;;;10.61;100.00;102980.56;5096428;28;19916;-35
2021/11/19 08:29:53;;;;;;;;;;;;;;;10.62;100.00;102980.38;5096724;28;19965;-35
2021/11/19 08:32:19;;;;;;;;;;;;;;;10.63;100.00;102976.66;5096307;28;19919;-35
2021/11/19 08:34:45;;;;;;;;;;;;;;;10.64;100.00;102975.66;5097343;28;20320;-35
2021/11/19 08:37:11;;;;;;;;;;;;;;;10.66;100.00;102973.59;5096409;28;19957;-35
2021/11/19 08:39:36;;;;;;;;;;;;;;;10.68;100.00;102976.94;5096898;28;19969;-35
2021/11/19 08:42:01;;;;;;;;;;;;;;;10.68;100.00;102968.84;5096298;28;20034;-35
2021/11/19 08:44:27;;;;;;;;;;;;;;;10.70;100.00;102968.69;5096983;28;20344;-35
2021/11/19 08:46:53;;;;;;;;;;;;;;;10.72;100.00;102969.31;5096314;28;19912;-35
2021/11/19 08:49:24;;;;;;;;;;;;;;;10.74;100.00;102972.72;5096168;28;19912;-35
2021/11/19 08:51:49;;;;;;;;;;;;;;;10.77;100.00;102969.63;5096264;28;19916;-35
2021/11/19 08:54:16;;;;;;;;;;;;;;;10.77;100.00;102975.88;5096959;28;19912;-35
2021/11/19 08:56:44;;;;;;;;;;;;;;;10.78;100.00;102972.16;5096039;28;19921;-35
2021/11/19 08:59:10;;;;;;;;;;;;;;;10.80;100.00;102974.69;5096218;28;19926;-35
2021/11/19 09:01:36;;;;;;;;;;;;;;;10.81;100.00;102982.63;5096138;28;19965;-35
2021/11/19 09:04:02;;;;;;;;;;;;;;;10.83;100.00;102982.41;5096997;28;20256;-35
2021/11/19 09:06:28;;;;;;;;;;;;;;;10.84;100.00;102978.72;5095890;28;19919;-35
2021/11/19 09:08:53;;;;;;;;;;;;;;;10.86;100.00;102976.66;5096099;28;19912;-35
2021/11/19 09:11:20;;;;;;;;;;;;;;;10.87;100.00;102967.50;5096133;28;19915;-35
2021/11/19 09:13:47;;;;;;;;;;;;;;;10.89;100.00;102970.06;5095844;28;19912;-35
2021/11/19 09:16:14;;;;;;;;;;;;;;;10.92;100.00;102973.22;5096555;28;19916;-35
2021/11/19 09:18:46;;;;;;;;;;;;;;;10.95;100.00;102978.28;5096429;28;19955;-36
2021/11/19 09:21:14;;;;;;;;;;;;;;;10.95;100.00;102972.88;5095967;28;20014;-35
2021/11/19 09:23:42;;;;;;;;;;;;;;;11.00;100.00;102980.44;5095058;28;20312;-35
2021/11/19 09:26:09;;;;;;;;;;;;;;;11.02;100.00;102976.50;5095747;28;20264;-35
2021/11/19 09:28:36;;;;;;;;;;;;;;;11.04;100.00;102981.78;5095560;28;20437;-35
2021/11/19 09:31:02;;;;;;;;;;;;;;;11.05;100.00;102978.88;5095716;28;19912;-35
2021/11/19 09:33:28;;;;;;;;;;;;;;;11.08;100.00;102978.53;5096579;28;20344;-35
2021/11/19 09:35:54;;;;;;;;;;;;;;;11.14;100.00;102981.53;5095404;28;19998;-36
2021/11/19 09:38:20;;;;;;;;;;;;;;;11.16;100.00;102984.88;5096024;28;19912;-35
2021/11/19 09:40:55;;;;;;;;;;;;;;;11.20;100.00;102988.91;5095131;28;20007;-35
2021/11/19 09:43:43;;;;;;;;;;;;;;;11.25;100.00;102990.03;5095164;28;19919;-37
2021/11/19 09:46:17;;;;;;;;;;;;;;;11.32;100.00;102985.59;5073373;28;19950;-36
2021/11/19 09:48:45;;;;;;;;;;;;;;;11.34;100.00;102988.94;5073405;28;19916;-36
2021/11/19 09:51:11;;;;;;;;;;;;;;;11.38;100.00;102988.59;5072864;28;19912;-35
2021/11/19 09:53:54;;;;;;;;;;;;;;;11.42;100.00;102990.75;5073187;28;19916;-36
2021/11/19 09:56:19;;;;;;;;;;;;;;;11.47;100.00;102988.31;5072712;28;20015;-36
2021/11/19 09:58:44;;;;;;;;;;;;;;;11.51;100.00;102984.19;5073294;28;20015;-36
2021/11/19 10:01:18;;;;;;;;;;;;;;;11.53;100.00;102979.44;5072519;28;19966;-36
2021/11/19 10:03:56;;;;;;;;;;;;;;;11.59;100.00;102984.13;5073278;28;19995;-35
2021/11/19 10:06:21;;;;;;;;;;;;;;;11.71;100.00;102989.06;5073285;28;19918;-35
2021/11/19 10:08:49;;;;;;;;;;;;;;;11.81;100.00;102979.66;5072412;28;20383;-35
2021/11/19 10:11:33;;;;;;;;;;;;;;;11.85;100.00;102974.69;5072835;28;19966;-35
2021/11/19 10:14:18;;;;;;;;;;;;;;;11.87;100.00;102974.53;5072524;28;19916;-35
2021/11/19 10:16:48;;;;;;;;;;;;;;;11.92;100.00;102980.22;5072242;28;20380;-35
2021/11/19 10:19:19;;;;;;;;;;;;;;;12.00;100.00;102982.81;5072161;28;19912;-35
2021/11/19 10:22:06;;;;;;;;;;;;;;;12.04;100.00;102978.72;5072039;28;19999;-35
2021/11/19 10:24:37;;;;;;;;;;;;;;;12.00;100.00;102983.66;5094367;28;19938;-36
2021/11/19 10:27:03;;;;;;;;;;;;;;;11.99;100.00;102984.69;5094672;28;19973;-36
2021/11/19 10:29:49;;;;;;;;;;;;;;;11.98;100.00;102985.72;5096019;28;20316;-36
2021/11/19 10:32:16;;;;;;;;;;;;;;;11.98;100.00;102985.72;5094083;28;19958;-36
2021/11/19 10:35:07;;;;;;;;;;;;;;;11.98;100.00;102985.72;5093746;28;19919;-36
2021/11/19 10:37:44;;;;;;;;;;;;;;;11.99;100.00;102971.13;5071850;28;20431;-36
2021/11/19 10:40:18;;;;;;;;;;;;;;;11.99;100.00;102982.00;5072694;28;19999;-36
2021/11/19 10:43:10;;;;;;;;;;;;;;;12.03;100.00;102986.00;5072113;28;19991;-36
2021/11/19 10:45:47;;;;;;;;;;;;;;;12.06;100.00;102988.34;4973181;28;20375;-36
2021/11/19 10:48:30;;;;;;;;;;;;;;;12.10;100.00;102977.94;4973839;28;20313;-36
2021/11/19 10:51:02;;;;;;;;;;;;;;;12.11;100.00;102979.66;4973269;28;19914;-36
2021/11/19 10:53:36;;;;;;;;;;;;;;;12.14;100.00;102989.28;4973036;28;19914;-36
2021/11/19 10:56:26;;;;;;;;;;;;;;;12.14;100.00;102981.13;4973565;28;19921;-36
2021/11/19 10:59:10;;;;;;;;;;;;;;;12.14;100.00;102978.41;4973248;28;19924;-36
2021/11/19 11:01:46;;;;;;;;;;;;;;;12.14;100.00;102975.72;4973045;28;20396;-36
2021/11/19 11:04:14;;;;;;;;;;;;;;;12.16;100.00;102982.63;4973607;28;19960;-36
2021/11/19 11:06:47;;;;;;;;;;;;;;;12.14;99.31;102975.72;4972995;28;19921;-36
2021/11/19 11:09:19;;;;;;;;;;;;;;;12.16;99.61;102974.50;4972845;28;19968;-36
2021/11/19 11:11:44;;;;;;;;;;;;;;;12.19;100.00;102976.81;4972968;28;19914;-36
2021/11/19 11:14:09;;;;;;;;;;;;;;;12.16;99.05;102965.53;4989292;28;19924;-36
2021/11/19 11:16:35;;;;;;;;;;;;;;;12.25;99.07;102983.34;5012466;28;19914;-35
2021/11/19 11:19:02;;;;;;;;;;;;;;;12.25;99.14;102972.50;5012066;28;19914;-36
2021/11/19 11:21:30;;;;;;;;;;;;;;;12.23;98.90;102971.84;5021401;28;20016;-36
2021/11/19 11:24:14;;;;;;;;;;;;;;;12.20;98.74;102969.50;5093878;28;19912;-36
2021/11/19 11:26:39;;;;;;;;;;;;;;;12.20;99.16;102975.81;5094362;28;19912;-35
2021/11/19 11:29:08;;;;;;;;;;;;;;;12.18;99.23;102969.72;5094448;28;19920;-36
2021/11/19 11:31:46;;;;;;;;;;;;;;;12.14;98.66;102967.56;5093661;28;19918;-36
2021/11/19 11:34:19;;;;;;;;;;;;;;;12.13;98.98;102971.31;5094046;28;19912;-35
2021/11/19 11:37:02;;;;;;;;;;;;;;;12.11;97.87;102976.94;5093633;28;19912;-36
2021/11/19 11:39:36;;;;;;;;;;;;;;;12.07;96.88;102976.47;5093373;28;19919;-36
2021/11/19 11:42:05;;;;;;;;;;;;;;;12.05;95.87;102975.84;5093655;28;20382;-36
2021/11/19 11:44:41;;;;;;;;;;;;;;;12.06;95.77;102969.38;5093070;28;19912;-36
2021/11/19 11:47:12;;;;;;;;;;;;;;;12.07;95.14;102962.06;5097300;28;19927;-36
2021/11/19 11:49:45;;;;;;;;;;;;;;;12.09;94.70;102973.56;5097830;28;19912;-36
2021/11/19 11:52:20;;;;;;;;;;;;;;;12.14;95.31;102970.28;5097592;28;19912;-36
2021/11/19 11:54:54;;;;;;;;;;;;;;;12.19;94.47;102965.13;5097743;28;19919;-36
2021/11/19 11:57:29;;;;;;;;;;;;;;;12.20;95.03;102966.81;5097439;28;19912;-36
2021/11/19 12:00:00;;;;;;;;;;;;;;;12.23;94.86;102961.00;5097375;28;19915;-36
2021/11/19 12:02:32;;;;;;;;;;;;;;;12.24;94.65;102960.81;5097783;28;19912;-36
2021/11/19 12:05:09;;;;;;;;;;;;;;;12.26;95.37;102966.91;5097503;28;19959;-36
2021/11/19 12:07:47;;;;;;;;;;;;;;;12.27;95.60;102968.56;5097377;28;19919;-36
2021/11/19 12:10:31;;;;;;;;;;;;;;;12.25;93.91;102972.50;5097232;28;19965;-36
2021/11/19 12:13:10;;;;;;;;;;;;;;;12.23;94.25;102967.28;5097247;28;19926;-36
2021/11/19 12:15:52;;;;;;;;;;;;;;;12.24;94.98;102962.69;5097476;28;19939;-36
2021/11/19 12:18:29;;;;;;;;;;;;;;;12.23;95.67;102961.00;5097203;28;19912;-36
2021/11/19 12:21:00;;;;;;;;;;;;;;;12.22;95.47;102967.47;5096738;28;20001;-36
2021/11/19 12:23:47;;;;;;;;;;;;;;;12.21;95.21;102963.09;5096919;28;19935;-36
2021/11/19 12:26:24;;;;;;;;;;;;;;;12.20;94.73;102964.97;5096773;28;19919;-36
2021/11/19 12:28:58;;;;;;;;;;;;;;;12.21;95.44;102969.34;5097588;28;19912;-36
2021/11/19 12:31:32;;;;;;;;;;;;;;;12.20;94.88;102966.81;5096842;28;20233;-36
2021/11/19 12:34:01;;;;;;;;;;;;;;;12.19;95.20;102960.53;5097329;28;19958;-36
2021/11/19 12:36:38;;;;;;;;;;;;;;;12.20;95.30;102958.66;5096577;28;20379;-36
2021/11/19 12:39:05;;;;;;;;;;;;;;;12.20;95.49;102961.38;5096648;28;19919;-36